Time;durP1;ratioP1;P1;durP2;ratioP2;P2;SDS_P1;SDS_P2;PMS_P1;PMS_P2;Temp;Humidity;BMP_temperature;BMP_pressure;BME280_temperature;BME280_humidity;BME280_pressure;Samples;Min_cycle;Max_cycle;Signal;HPM_P1;HPM_P2
2023/05/30 00:01:18;;;;;;;63.40;49.60;;;16.50;73.70;;;;;;4895965;28;91759;-48
2023/05/30 00:03:44;;;;;;;65.15;50.20;;;16.40;73.20;;;;;;4900431;28;91200;-46
2023/05/30 00:06:14;;;;;;;64.30;49.65;;;16.40;73.10;;;;;;4902231;28;90039;-49
2023/05/30 00:08:41;;;;;;;63.97;49.50;;;16.50;73.90;;;;;;4896585;28;90302;-50
2023/05/30 00:11:07;;;;;;;65.05;49.85;;;16.40;73.60;;;;;;4893708;28;91575;-49
2023/05/30 00:13:33;;;;;;;64.10;49.88;;;16.40;73.60;;;;;;4901222;28;90639;-47
2023/05/30 00:15:59;;;;;;;63.03;49.38;;;16.40;73.50;;;;;;4902548;28;90905;-45
2023/05/30 00:18:25;;;;;;;63.92;49.85;;;16.50;73.80;;;;;;4904096;28;89242;-44
2023/05/30 00:20:51;;;;;;;64.13;49.60;;;16.40;74.00;;;;;;4909297;28;90274;-45
2023/05/30 00:23:17;;;;;;;65.10;50.00;;;16.40;74.00;;;;;;4903318;28;90023;-44
2023/05/30 00:25:45;;;;;;;65.90;49.75;;;16.40;74.20;;;;;;4901059;28;91142;-47
2023/05/30 00:28:12;;;;;;;63.97;49.85;;;16.40;74.40;;;;;;4906308;28;89892;-47
2023/05/30 00:30:37;;;;;;;64.35;50.38;;;16.30;73.80;;;;;;4901821;28;91160;-45
2023/05/30 00:33:19;;;;;;;64.00;49.60;;;16.30;74.30;;;;;;4899832;28;90843;-47
2023/05/30 00:35:45;;;;;;;64.30;49.70;;;16.30;74.40;;;;;;4897018;28;89837;-49
2023/05/30 00:38:11;;;;;;;63.60;49.58;;;16.40;74.10;;;;;;4902804;28;89965;-45
2023/05/30 00:40:37;;;;;;;64.57;49.88;;;16.30;74.10;;;;;;4900494;28;90386;-47
2023/05/30 00:43:02;;;;;;;62.85;49.58;;;16.30;74.40;;;;;;4905398;28;89748;-45
2023/05/30 00:45:28;;;;;;;62.42;49.78;;;16.40;74.40;;;;;;4897358;28;90761;-50
2023/05/30 00:47:54;;;;;;;63.80;49.75;;;16.30;74.20;;;;;;4903322;28;89945;-48
2023/05/30 00:50:20;;;;;;;62.65;49.65;;;16.30;74.30;;;;;;4901661;28;90644;-46
2023/05/30 00:52:47;;;;;;;64.55;49.92;;;16.30;74.10;;;;;;4900009;28;90936;-44
2023/05/30 00:55:14;;;;;;;63.70;49.80;;;16.30;74.30;;;;;;4900850;28;90302;-46
2023/05/30 00:57:40;;;;;;;64.97;49.97;;;16.30;74.50;;;;;;4900683;28;89732;-45
2023/05/30 01:00:06;;;;;;;65.15;50.13;;;16.20;74.40;;;;;;4901240;28;90830;-45
2023/05/30 01:02:33;;;;;;;63.38;49.83;;;16.20;74.00;;;;;;4897596;28;90960;-44
2023/05/30 01:05:00;;;;;;;63.10;49.60;;;16.20;74.70;;;;;;4901823;28;90262;-46
2023/05/30 01:07:27;;;;;;;64.60;49.70;;;16.20;74.70;;;;;;4899006;28;91333;-44
2023/05/30 01:09:53;;;;;;;62.55;49.65;;;16.20;74.70;;;;;;4898146;28;90909;-44
2023/05/30 01:12:36;;;;;;;61.60;49.67;;;16.20;74.70;;;;;;4898874;28;90230;-46
2023/05/30 01:15:20;;;;;;;62.53;49.55;;;16.20;74.90;;;;;;4904445;28;91012;-45
2023/05/30 01:18:00;;;;;;;62.63;49.53;;;16.20;74.70;;;;;;4904072;28;90102;-46
2023/05/30 01:20:27;;;;;;;63.40;49.75;;;16.10;74.70;;;;;;4902485;28;89924;-46
2023/05/30 01:22:56;;;;;;;63.95;50.00;;;16.10;74.80;;;;;;4902394;28;89524;-47
2023/05/30 01:25:35;;;;;;;62.50;49.38;;;16.10;75.00;;;;;;4899015;28;89544;-46
2023/05/30 01:28:13;;;;;;;63.15;49.30;;;16.10;75.10;;;;;;4902188;28;90505;-45
2023/05/30 01:30:45;;;;;;;63.58;49.78;;;16.10;75.20;;;;;;4895671;28;91167;-46
2023/05/30 01:33:13;;;;;;;63.05;49.55;;;16.10;75.10;;;;;;4900923;28;89353;-45
2023/05/30 01:35:42;;;;;;;64.00;49.65;;;16.10;74.80;;;;;;4901344;28;90944;-45
2023/05/30 01:38:08;;;;;;;63.65;49.42;;;16.10;75.30;;;;;;4903743;28;90941;-46
2023/05/30 01:40:35;;;;;;;62.15;49.22;;;16.00;75.30;;;;;;4899311;28;92811;-49
2023/05/30 01:43:12;;;;;;;64.45;49.40;;;16.10;75.10;;;;;;4898606;28;90475;-47
2023/05/30 01:45:57;;;;;;;63.42;49.47;;;16.10;74.60;;;;;;4903825;28;89963;-45
2023/05/30 01:48:38;;;;;;;62.95;49.90;;;16.10;75.20;;;;;;4905605;28;89937;-46
2023/05/30 01:51:10;;;;;;;62.25;49.85;;;16.00;75.30;;;;;;4915486;28;90634;-44
2023/05/30 01:53:41;;;;;;;61.88;49.28;;;16.00;75.60;;;;;;4909315;28;91845;-49
2023/05/30 01:56:09;;;;;;;64.57;49.78;;;15.90;75.40;;;;;;4903712;28;89638;-63
2023/05/30 01:58:36;;;;;;;62.13;49.33;;;15.90;75.30;;;;;;4903069;28;89224;-59
2023/05/30 02:01:04;;;;;;;62.40;49.28;;;16.00;75.60;;;;;;4902385;28;89535;-58
2023/05/30 02:03:31;;;;;;;62.83;49.35;;;15.90;75.90;;;;;;4905694;28;90826;-53
2023/05/30 02:05:56;;;;;;;63.20;49.35;;;16.00;75.60;;;;;;4904813;28;90959;-60
2023/05/30 02:08:22;;;;;;;63.42;49.67;;;15.90;75.60;;;;;;4903931;28;89578;-61
2023/05/30 02:10:48;;;;;;;63.58;49.45;;;15.90;75.50;;;;;;4901344;28;91524;-56
2023/05/30 02:13:13;;;;;;;63.95;49.53;;;15.90;75.90;;;;;;4902900;28;90483;-59
2023/05/30 02:15:40;;;;;;;61.63;49.45;;;15.90;75.90;;;;;;4904133;28;90017;-62
2023/05/30 02:18:06;;;;;;;61.92;49.35;;;15.90;75.80;;;;;;4903665;28;89709;-62
2023/05/30 02:20:31;;;;;;;61.53;49.50;;;15.90;76.00;;;;;;4908947;28;89889;-54
2023/05/30 02:22:57;;;;;;;62.25;49.30;;;15.90;75.90;;;;;;4908065;28;88723;-62
2023/05/30 02:25:23;;;;;;;63.15;49.30;;;15.90;75.90;;;;;;4902311;28;90474;-62
2023/05/30 02:27:50;;;;;;;63.33;49.25;;;15.80;75.80;;;;;;4905949;28;91022;-60
2023/05/30 02:30:17;;;;;;;64.43;49.63;;;15.80;75.80;;;;;;4902321;28;91300;-63
2023/05/30 02:32:43;;;;;;;62.38;49.53;;;15.90;76.00;;;;;;4905623;28;89565;-54
2023/05/30 02:35:09;;;;;;;63.05;49.67;;;15.80;75.90;;;;;;4906831;28;89627;-53
2023/05/30 02:37:35;;;;;;;64.47;49.40;;;15.90;75.60;;;;;;4905315;28;89730;-59
2023/05/30 02:40:01;;;;;;;61.00;49.25;;;15.80;76.20;;;;;;4902485;28;89838;-61
2023/05/30 02:42:27;;;;;;;61.90;49.22;;;15.90;75.70;;;;;;4905563;28;89892;-60
2023/05/30 02:44:53;;;;;;;61.03;49.25;;;15.80;75.90;;;;;;4905735;28;89551;-63
2023/05/30 02:47:19;;;;;;;63.97;49.63;;;15.80;76.30;;;;;;4909744;28;88654;-62
2023/05/30 02:49:44;;;;;;;62.67;49.05;;;15.80;75.60;;;;;;4900645;28;90509;-58
2023/05/30 02:52:10;;;;;;;62.88;49.45;;;15.80;75.80;;;;;;4901937;28;90570;-57
2023/05/30 02:54:38;;;;;;;62.75;49.80;;;15.80;76.50;;;;;;4908131;28;90496;-59
2023/05/30 02:57:05;;;;;;;62.63;49.22;;;15.80;76.30;;;;;;4906112;28;89495;-62
2023/05/30 02:59:30;;;;;;;61.55;49.33;;;15.70;75.50;;;;;;4908939;28;89563;-62
2023/05/30 03:01:56;;;;;;;62.70;49.50;;;15.70;76.00;;;;;;4903142;28;93970;-60
2023/05/30 03:04:22;;;;;;;62.05;49.17;;;15.70;76.50;;;;;;4904714;28;90211;-56
2023/05/30 03:06:50;;;;;;;62.97;49.20;;;15.70;76.50;;;;;;4904272;28;89289;-61
2023/05/30 03:09:16;;;;;;;62.75;49.25;;;15.70;76.20;;;;;;4908507;28;90458;-59
2023/05/30 03:11:41;;;;;;;61.40;49.10;;;15.70;76.50;;;;;;4903274;28;88840;-58
2023/05/30 03:14:07;;;;;;;62.30;49.22;;;15.50;76.30;;;;;;4906508;28;89917;-57
2023/05/30 03:16:33;;;;;;;62.10;49.25;;;15.60;76.40;;;;;;4901197;28;90244;-62
2023/05/30 03:18:58;;;;;;;61.53;49.28;;;15.50;76.80;;;;;;4901218;28;91698;-62
2023/05/30 03:21:24;;;;;;;62.65;49.20;;;15.60;76.50;;;;;;4922533;28;90489;-62
2023/05/30 03:23:51;;;;;;;62.83;49.03;;;15.60;76.70;;;;;;4902379;28;89638;-60
2023/05/30 03:26:16;;;;;;;61.10;49.22;;;15.60;77.00;;;;;;4901574;28;89367;-60
2023/05/30 03:28:42;;;;;;;61.78;49.35;;;15.50;77.10;;;;;;4900289;28;89633;-62
2023/05/30 03:31:08;;;;;;;62.08;49.25;;;15.50;76.40;;;;;;4896533;28;89678;-57
2023/05/30 03:33:33;;;;;;;62.28;48.85;;;15.50;76.70;;;;;;4901376;28;89750;-61
2023/05/30 03:35:59;;;;;;;61.63;49.35;;;15.50;77.20;;;;;;4906041;28;88875;-63
2023/05/30 03:38:25;;;;;;;62.95;49.00;;;15.50;76.90;;;;;;4904426;28;90312;-64
2023/05/30 03:40:50;;;;;;;62.42;49.42;;;15.50;76.90;;;;;;4899970;28;89899;-55
2023/05/30 03:43:16;;;;;;;61.55;49.35;;;15.50;76.70;;;;;;4904694;28;91082;-62
2023/05/30 03:45:42;;;;;;;61.92;48.78;;;15.40;76.80;;;;;;4902120;28;89899;-54
2023/05/30 03:48:07;;;;;;;61.95;48.97;;;15.50;77.20;;;;;;4901268;28;90008;-63
2023/05/30 03:50:33;;;;;;;60.97;49.15;;;15.50;77.30;;;;;;4903227;28;91685;-59
2023/05/30 03:52:59;;;;;;;63.35;49.03;;;15.50;76.80;;;;;;4902128;28;90910;-61
2023/05/30 03:55:24;;;;;;;61.10;48.85;;;15.40;76.90;;;;;;4904270;28;89610;-56
2023/05/30 03:57:50;;;;;;;61.72;48.92;;;15.40;77.40;;;;;;4905614;28;90209;-53
2023/05/30 04:00:16;;;;;;;61.17;48.67;;;15.30;77.50;;;;;;4900761;28;89264;-60
2023/05/30 04:02:42;;;;;;;60.63;49.05;;;15.40;77.60;;;;;;4904931;28;89553;-63
2023/05/30 04:05:08;;;;;;;61.35;48.83;;;15.40;77.90;;;;;;4883423;28;90893;-60
2023/05/30 04:07:36;;;;;;;63.78;49.53;;;15.40;76.20;;;;;;4890072;28;92226;-59
2023/05/30 04:10:05;;;;;;;61.00;48.67;;;15.40;77.30;;;;;;4902163;28;90480;-58
2023/05/30 04:12:31;;;;;;;62.53;49.25;;;15.50;77.60;;;;;;4900161;28;89885;-62
2023/05/30 04:14:57;;;;;;;62.25;49.30;;;15.40;76.30;;;;;;4898875;28;89608;-63
2023/05/30 04:17:23;;;;;;;61.55;48.78;;;15.40;77.30;;;;;;4901817;28;94141;-58
2023/05/30 04:19:50;;;;;;;60.70;48.92;;;15.40;77.40;;;;;;4892680;28;90879;-60
2023/05/30 04:22:16;;;;;;;62.30;49.13;;;15.40;77.50;;;;;;4892294;28;90799;-60
2023/05/30 04:24:41;;;;;;;61.30;48.88;;;15.50;77.50;;;;;;4899563;28;89262;-59
2023/05/30 04:27:07;;;;;;;62.15;48.85;;;15.50;77.20;;;;;;4900899;28;90150;-61
2023/05/30 04:29:33;;;;;;;62.05;49.30;;;15.50;77.30;;;;;;4894512;28;89990;-59
2023/05/30 04:31:58;;;;;;;61.63;49.13;;;15.50;76.40;;;;;;4893749;28;92932;-62
2023/05/30 04:34:24;;;;;;;60.92;48.83;;;15.50;77.10;;;;;;4902748;28;90224;-62
2023/05/30 04:36:53;;;;;;;62.95;49.05;;;15.50;77.30;;;;;;4904239;28;91859;-58
2023/05/30 04:39:19;;;;;;;61.22;49.08;;;15.50;76.30;;;;;;4902408;28;89675;-57
2023/05/30 04:41:44;;;;;;;60.60;48.65;;;15.50;76.60;;;;;;4896931;28;89610;-57
2023/05/30 04:44:10;;;;;;;62.40;48.95;;;15.50;76.90;;;;;;4899031;28;89246;-58
2023/05/30 04:46:36;;;;;;;62.60;49.25;;;15.50;76.90;;;;;;4898121;28;89964;-53
2023/05/30 04:49:02;;;;;;;61.22;49.17;;;15.50;77.00;;;;;;4894900;28;92910;-54
2023/05/30 04:51:28;;;;;;;62.25;49.15;;;15.60;77.10;;;;;;4900467;28;89614;-60
2023/05/30 04:53:54;;;;;;;61.50;49.28;;;15.60;76.60;;;;;;4900259;28;91064;-62
2023/05/30 04:56:20;;;;;;;61.15;49.08;;;15.60;77.00;;;;;;4898931;28;91045;-62
2023/05/30 04:58:48;;;;;;;60.35;48.75;;;15.60;76.30;;;;;;4896902;28;90939;-61
2023/05/30 05:01:14;;;;;;;62.50;49.30;;;15.60;76.70;;;;;;4899284;28;90186;-59
2023/05/30 05:03:40;;;;;;;61.13;48.83;;;15.70;76.90;;;;;;4905579;28;89543;-62
2023/05/30 05:06:07;;;;;;;63.28;49.33;;;15.70;75.60;;;;;;4898370;28;90985;-59
2023/05/30 05:08:36;;;;;;;62.70;49.28;;;15.70;76.90;;;;;;4901129;28;90528;-60
2023/05/30 05:11:03;;;;;;;62.15;48.97;;;15.70;75.90;;;;;;4899546;28;90257;-57
2023/05/30 05:13:29;;;;;;;61.42;49.45;;;15.80;76.10;;;;;;4901122;28;88848;-62
2023/05/30 05:15:55;;;;;;;63.67;49.25;;;15.70;75.50;;;;;;4903863;28;89690;-56
2023/05/30 05:18:21;;;;;;;61.65;49.35;;;15.80;76.00;;;;;;4898817;28;90097;-56
2023/05/30 05:20:47;;;;;;;63.75;49.28;;;15.90;75.80;;;;;;4901114;28;90474;-56
2023/05/30 05:23:13;;;;;;;62.33;49.08;;;15.90;75.20;;;;;;4899349;28;89551;-56
2023/05/30 05:25:39;;;;;;;61.90;49.03;;;15.90;75.50;;;;;;4898329;28;89898;-44
2023/05/30 05:28:05;;;;;;;62.40;49.40;;;16.00;75.30;;;;;;4904188;28;90443;-47
2023/05/30 05:30:30;;;;;;;62.20;49.33;;;16.00;74.90;;;;;;4901108;28;90183;-46
2023/05/30 05:32:56;;;;;;;61.90;49.13;;;16.00;74.90;;;;;;4908916;28;89807;-45
2023/05/30 05:35:22;;;;;;;62.40;49.45;;;16.00;75.30;;;;;;4901362;28;90623;-45
2023/05/30 05:37:48;;;;;;;60.80;48.88;;;16.00;74.80;;;;;;4907322;28;89779;-49
2023/05/30 05:40:13;;;;;;;62.95;49.53;;;16.10;74.80;;;;;;4898588;28;90827;-46
2023/05/30 05:42:40;;;;;;;63.97;49.35;;;16.10;74.70;;;;;;4904454;28;90340;-45
2023/05/30 05:45:06;;;;;;;62.78;49.38;;;16.10;74.70;;;;;;4906833;28;91057;-47
2023/05/30 05:47:32;;;;;;;262.50;83.78;;;16.20;74.60;;;;;;4907057;28;89712;-44
2023/05/30 05:49:58;;;;;;;87.25;52.10;;;16.20;74.00;;;;;;4905464;28;89651;-39
2023/05/30 05:52:24;;;;;;;84.75;52.38;;;16.50;72.60;;;;;;4904424;28;89839;-40
2023/05/30 05:54:50;;;;;;;83.13;52.38;;;16.60;72.10;;;;;;4908325;28;90049;-40
2023/05/30 05:57:15;;;;;;;83.25;52.03;;;16.60;71.60;;;;;;4909172;28;90869;-42
2023/05/30 05:59:41;;;;;;;84.68;52.55;;;16.60;71.20;;;;;;4904370;28;90890;-42
2023/05/30 06:02:07;;;;;;;80.93;52.33;;;16.70;71.10;;;;;;4896087;28;89285;-41
2023/05/30 06:04:32;;;;;;;86.07;52.13;;;16.80;70.80;;;;;;4904501;28;89642;-41
2023/05/30 06:06:58;;;;;;;79.80;51.65;;;16.80;70.80;;;;;;4911290;28;89484;-40
2023/05/30 06:09:30;;;;;;;80.28;52.35;;;16.80;70.30;;;;;;4905555;28;90418;-41
2023/05/30 06:11:56;;;;;;;82.63;52.42;;;16.70;70.40;;;;;;4910156;28;89231;-40
2023/05/30 06:14:22;;;;;;;81.47;51.92;;;16.60;69.60;;;;;;4905230;28;90219;-41
2023/05/30 06:16:48;;;;;;;79.03;52.03;;;16.50;68.20;;;;;;4902682;28;89758;-41
2023/05/30 06:19:13;;;;;;;81.60;52.30;;;16.40;67.00;;;;;;4905758;28;89728;-44
2023/05/30 06:21:39;;;;;;;82.38;51.88;;;16.10;62.50;;;;;;4908072;28;90913;-44
2023/05/30 06:24:06;;;;;;;81.18;52.00;;;15.70;66.10;;;;;;4904804;28;90332;-45
2023/05/30 06:26:32;;;;;;;77.28;51.50;;;15.50;64.80;;;;;;4906593;28;89394;-44
2023/05/30 06:28:58;;;;;;;82.43;52.10;;;15.80;64.50;;;;;;4903148;28;91002;-44
2023/05/30 06:31:24;;;;;;;82.05;52.00;;;16.00;64.50;;;;;;4900935;28;89436;-43
2023/05/30 06:33:49;;;;;;;76.53;51.58;;;16.00;63.00;;;;;;4906862;28;91447;-45
2023/05/30 06:36:15;;;;;;;78.32;51.92;;;15.60;63.30;;;;;;4906788;28;90544;-46
2023/05/30 06:38:41;;;;;;;78.45;51.40;;;15.20;65.30;;;;;;4908394;28;90276;-46
2023/05/30 06:41:07;;;;;;;75.97;51.47;;;15.40;65.00;;;;;;4904384;28;90569;-48
2023/05/30 06:43:32;;;;;;;77.60;51.47;;;15.60;64.70;;;;;;4905832;28;89462;-46
2023/05/30 06:45:58;;;;;;;78.47;51.00;;;15.60;63.90;;;;;;4906778;28;91643;-48
2023/05/30 06:48:24;;;;;;;79.63;51.60;;;15.80;63.60;;;;;;4905642;28;89592;-48
2023/05/30 06:50:50;;;;;;;78.00;51.47;;;15.60;63.90;;;;;;4903259;28;88664;-47
2023/05/30 06:53:16;;;;;;;74.15;51.08;;;15.70;64.50;;;;;;4904621;28;89462;-48
2023/05/30 06:55:42;;;;;;;81.63;51.88;;;15.50;64.80;;;;;;4903389;28;89444;-47
2023/05/30 06:58:08;;;;;;;79.75;51.70;;;15.50;64.50;;;;;;4906468;28;90684;-45
2023/05/30 07:00:33;;;;;;;78.60;51.33;;;15.70;64.60;;;;;;4903774;28;89767;-47
2023/05/30 07:03:02;;;;;;;80.47;52.03;;;15.90;63.10;;;;;;4907172;28;90149;-47
2023/05/30 07:05:28;;;;;;;81.03;51.80;;;15.80;62.20;;;;;;4905657;28;89706;-45
2023/05/30 07:07:54;;;;;;;79.45;51.40;;;15.60;63.10;;;;;;4903584;28;89256;-47
2023/05/30 07:10:19;;;;;;;76.40;50.97;;;15.50;64.50;;;;;;4907276;28;89137;-49
2023/05/30 07:12:45;;;;;;;76.00;51.00;;;15.60;64.10;;;;;;4901990;28;89717;-45
2023/05/30 07:15:13;;;;;;;76.53;51.53;;;15.60;63.60;;;;;;4907304;28;88863;-45
2023/05/30 07:17:39;;;;;;;76.75;51.60;;;15.80;63.00;;;;;;4903383;28;90521;-46
2023/05/30 07:20:06;;;;;;;82.07;52.15;;;16.00;62.70;;;;;;4895964;28;91111;-45
2023/05/30 07:22:32;;;;;;;75.07;51.65;;;16.10;62.00;;;;;;4894175;28;90716;-45
2023/05/30 07:24:57;;;;;;;79.30;51.78;;;16.00;61.90;;;;;;4904324;28;90316;-47
2023/05/30 07:27:23;;;;;;;76.18;51.83;;;16.10;62.20;;;;;;4905407;28;89593;-45
2023/05/30 07:29:49;;;;;;;75.90;51.95;;;16.20;61.40;;;;;;4897862;28;90608;-46
2023/05/30 07:32:14;;;;;;;77.57;52.03;;;16.30;61.50;;;;;;4903133;28;90756;-47
2023/05/30 07:34:40;;;;;;;72.95;51.35;;;16.30;61.60;;;;;;4902051;28;89172;-46
2023/05/30 07:37:07;;;;;;;80.78;52.25;;;16.20;61.90;;;;;;4904389;28;89302;-47
2023/05/30 07:39:33;;;;;;;78.22;51.55;;;16.20;60.70;;;;;;4904343;28;89314;-46
2023/05/30 07:41:58;;;;;;;80.50;52.65;;;16.20;61.50;;;;;;4901460;28;90380;-45
2023/05/30 07:44:27;;;;;;;77.07;52.20;;;16.10;61.50;;;;;;4903161;28;90479;-45
2023/05/30 07:46:52;;;;;;;75.95;52.05;;;16.00;61.50;;;;;;4903271;28;90486;-49
2023/05/30 07:49:22;;;;;;;78.88;51.67;;;16.10;60.90;;;;;;4902969;28;89399;-47
2023/05/30 07:51:48;;;;;;;77.13;52.38;;;16.20;61.50;;;;;;4903493;28;90195;-47
2023/05/30 07:54:15;;;;;;;76.78;51.90;;;16.20;60.00;;;;;;4905210;28;89988;-46
2023/05/30 07:56:40;;;;;;;75.60;52.08;;;16.20;61.90;;;;;;4904147;28;91656;-47
2023/05/30 07:59:06;;;;;;;73.78;51.83;;;16.30;62.50;;;;;;4907565;28;89556;-48
2023/05/30 08:01:32;;;;;;;73.47;51.75;;;16.40;60.90;;;;;;4901289;28;89289;-48
2023/05/30 08:03:58;;;;;;;71.95;51.88;;;16.30;61.70;;;;;;4905103;28;90176;-49
2023/05/30 08:06:24;;;;;;;77.95;52.53;;;16.10;61.60;;;;;;4906208;28;89639;-48
2023/05/30 08:08:50;;;;;;;80.20;51.97;;;16.20;62.10;;;;;;4902492;28;90176;-51
2023/05/30 08:11:16;;;;;;;76.22;51.83;;;16.40;61.70;;;;;;4897315;28;91063;-48
2023/05/30 08:13:43;;;;;;;73.63;51.85;;;16.40;62.00;;;;;;4901794;28;90262;-48
2023/05/30 08:16:10;;;;;;;76.40;52.17;;;16.40;61.50;;;;;;4905022;28;89750;-49
2023/05/30 08:18:36;;;;;;;73.65;51.83;;;16.40;61.40;;;;;;4904779;28;89794;-50
2023/05/30 08:21:02;;;;;;;73.80;52.15;;;16.40;59.70;;;;;;4899915;28;89313;-48
2023/05/30 08:23:28;;;;;;;79.55;52.70;;;16.50;60.60;;;;;;4898428;28;89408;-46
2023/05/30 08:25:55;;;;;;;78.07;52.83;;;16.60;60.10;;;;;;4903474;28;92104;-48
2023/05/30 08:28:21;;;;;;;77.50;52.35;;;16.60;60.00;;;;;;4905989;28;88727;-46
2023/05/30 08:30:48;;;;;;;76.43;52.53;;;16.70;60.00;;;;;;4900263;28;90057;-48
2023/05/30 08:33:15;;;;;;;80.35;53.17;;;16.80;60.20;;;;;;4902538;28;89963;-47
2023/05/30 08:35:41;;;;;;;72.47;51.70;;;17.00;58.40;;;;;;4900738;28;91318;-47
2023/05/30 08:38:07;;;;;;;81.00;52.22;;;17.00;59.90;;;;;;4899934;28;90065;-45
2023/05/30 08:40:34;;;;;;;75.32;52.22;;;16.80;58.20;;;;;;4902834;28;90859;-46
2023/05/30 08:43:00;;;;;;;79.60;52.17;;;16.90;58.10;;;;;;4901756;28;89875;-46
2023/05/30 08:45:28;;;;;;;73.40;52.20;;;16.90;58.90;;;;;;4906076;28;89582;-46
2023/05/30 08:47:57;;;;;;;72.95;51.97;;;16.90;58.10;;;;;;4902661;28;89479;-46
2023/05/30 08:50:24;;;;;;;75.53;52.03;;;17.00;58.70;;;;;;4901087;28;89828;-46
2023/05/30 08:52:56;;;;;;;73.93;52.00;;;17.10;57.20;;;;;;4900360;28;89416;-46
2023/05/30 08:55:26;;;;;;;76.50;52.35;;;16.90;56.20;;;;;;4903260;28;89492;-46
2023/05/30 08:58:04;;;;;;;74.78;52.45;;;16.90;57.00;;;;;;4902528;28;89945;-46
2023/05/30 09:00:34;;;;;;;74.72;52.42;;;17.00;58.70;;;;;;4906149;28;91058;-48
2023/05/30 09:03:00;;;;;;;72.07;51.65;;;17.10;56.00;;;;;;4907844;28;89923;-47
2023/05/30 09:05:26;;;;;;;77.07;52.50;;;17.10;58.50;;;;;;4904143;28;91270;-46
2023/05/30 09:07:53;;;;;;;78.03;52.42;;;17.20;57.20;;;;;;4906341;28;90073;-47
2023/05/30 09:10:19;;;;;;;75.38;52.42;;;17.40;57.00;;;;;;4906504;28;90847;-48
2023/05/30 09:12:45;;;;;;;72.50;51.92;;;17.30;57.10;;;;;;4908141;28;90474;-45
2023/05/30 09:15:11;;;;;;;74.45;52.30;;;17.30;57.40;;;;;;4906430;28;89478;-45
2023/05/30 09:17:37;;;;;;;77.30;52.90;;;17.40;56.20;;;;;;4904451;28;89478;-47
2023/05/30 09:20:05;;;;;;;75.20;52.40;;;17.40;56.40;;;;;;4904066;28;90072;-47
2023/05/30 09:22:31;;;;;;;71.47;51.35;;;17.50;57.00;;;;;;4906400;28;90023;-45
2023/05/30 09:25:05;;;;;;;76.68;52.50;;;17.50;56.70;;;;;;4902609;28;90420;-46
2023/05/30 09:27:35;;;;;;;77.25;52.85;;;17.60;56.70;;;;;;4905386;28;89291;-47
2023/05/30 09:30:10;;;;;;;74.63;51.90;;;17.50;57.50;;;;;;4898478;28;89987;-49
2023/05/30 09:32:39;;;;;;;77.05;52.58;;;17.70;56.30;;;;;;4908469;28;89668;-47
2023/05/30 09:35:09;;;;;;;84.88;52.38;;;17.60;56.00;;;;;;4905504;28;89478;-46
2023/05/30 09:37:35;;;;;;;75.82;52.88;;;17.70;55.90;;;;;;4906793;28;90022;-45
2023/05/30 09:40:11;;;;;;;74.70;52.67;;;17.70;54.30;;;;;;4905191;28;90148;-45
2023/05/30 09:42:44;;;;;;;77.32;53.22;;;17.60;55.80;;;;;;4908748;28;89421;-47
2023/05/30 09:45:12;;;;;;;75.13;52.65;;;17.60;55.00;;;;;;4901129;28;91717;-48
2023/05/30 09:47:44;;;;;;;72.15;52.53;;;17.70;55.60;;;;;;4906369;28;89539;-47
2023/05/30 09:50:14;;;;;;;77.88;52.75;;;17.70;55.10;;;;;;4903888;28;90612;-50
2023/05/30 09:52:41;;;;;;;70.57;52.22;;;17.70;55.70;;;;;;4909490;28;90727;-48
2023/05/30 09:55:08;;;;;;;76.80;52.10;;;17.80;55.10;;;;;;4903710;28;90095;-46
2023/05/30 09:57:37;;;;;;;76.07;52.75;;;18.00;56.40;;;;;;4909824;28;89849;-47
2023/05/30 10:00:11;;;;;;;71.78;51.88;;;18.00;54.10;;;;;;4907941;28;90276;-47
2023/05/30 10:02:39;;;;;;;73.35;52.13;;;18.00;54.50;;;;;;4905765;28;90043;-46
2023/05/30 10:05:06;;;;;;;75.35;52.47;;;17.90;53.50;;;;;;4909473;28;89825;-46
2023/05/30 10:07:32;;;;;;;76.60;52.40;;;18.00;54.60;;;;;;4908441;28;88824;-45
2023/05/30 10:09:58;;;;;;;75.97;52.83;;;18.00;53.80;;;;;;4905982;28;90057;-44
2023/05/30 10:12:25;;;;;;;76.68;52.67;;;18.10;52.70;;;;;;4907006;28;91100;-43
2023/05/30 10:14:50;;;;;;;77.55;52.97;;;18.10;54.80;;;;;;4906444;28;90602;-43
2023/05/30 10:17:22;;;;;;;75.53;52.90;;;18.10;53.30;;;;;;4903707;28;92179;-43
2023/05/30 10:19:47;;;;;;;;;;;18.10;54.30;;;;;;4905245;28;89477;-43
2023/05/30 10:22:14;;;;;;;72.20;52.35;;;18.20;54.20;;;;;;4907625;28;89357;-44
2023/05/30 10:24:46;;;;;;;75.35;53.03;;;18.20;53.90;;;;;;4909314;28;89653;-44
2023/05/30 10:27:17;;;;;;;73.88;52.97;;;18.20;54.10;;;;;;4908262;28;90109;-44
2023/05/30 10:29:52;;;;;;;73.60;52.42;;;18.30;52.40;;;;;;4898320;28;89471;-45
2023/05/30 10:32:24;;;;;;;77.35;53.05;;;18.30;53.50;;;;;;4902622;28;89876;-45
2023/05/30 10:34:59;;;;;;;75.13;52.72;;;18.40;53.60;;;;;;4908128;28;89416;-44
2023/05/30 10:37:25;;;;;;;75.40;53.25;;;18.40;53.40;;;;;;4907199;28;89645;-44
2023/05/30 10:40:06;;;;;;;76.90;53.28;;;18.40;54.00;;;;;;4903648;28;91399;-43
2023/05/30 10:42:38;;;;;;;72.68;51.92;;;18.40;53.20;;;;;;4904670;28;90960;-43
2023/05/30 10:45:17;;;;;;;77.93;53.22;;;18.50;54.60;;;;;;4906281;28;89937;-46
2023/05/30 10:48:23;;;;;;;71.80;52.25;;;18.60;51.70;;;;;;4905034;28;89658;-46
2023/05/30 10:50:53;;;;;;;74.70;53.10;;;18.60;53.70;;;;;;4886798;28;90194;-44
2023/05/30 10:53:20;;;;;;;74.30;52.72;;;18.60;52.50;;;;;;4902142;28;89576;-44
2023/05/30 10:55:47;;;;;;;74.53;52.95;;;18.60;53.70;;;;;;4906480;28;89551;-47
2023/05/30 10:58:50;;;;;;;73.55;52.75;;;18.60;53.80;;;;;;4903638;28;89045;-44
2023/05/30 11:01:25;;;;;;;75.57;53.65;;;18.70;54.70;;;;;;4882374;28;89538;-46
2023/05/30 11:03:57;;;;;;;73.43;52.85;;;18.70;53.00;;;;;;4902959;28;89417;-44
2023/05/30 11:06:27;;;;;;;78.25;54.05;;;18.70;53.60;;;;;;4902729;28;90760;-45
2023/05/30 11:09:03;;;;;;;77.35;53.67;;;18.80;51.90;;;;;;4899595;28;89580;-43
2023/05/30 11:11:52;;;;;;;74.88;53.17;;;18.80;52.40;;;;;;4903865;28;90950;-45
2023/05/30 11:14:24;;;;;;;75.65;52.78;;;18.90;53.00;;;;;;4891359;28;89530;-45
2023/05/30 11:17:00;;;;;;;80.07;53.75;;;18.90;51.70;;;;;;4903935;28;89571;-43
2023/05/30 11:19:35;;;;;;;74.20;52.83;;;18.90;50.00;;;;;;4898933;28;89566;-43
2023/05/30 11:22:20;;;;;;;73.55;53.35;;;18.90;53.30;;;;;;4903602;28;89584;-46
2023/05/30 11:24:45;;;;;;;72.97;52.70;;;19.00;52.80;;;;;;4903752;28;89939;-44
2023/05/30 11:27:14;;;;;;;79.25;53.47;;;19.00;53.70;;;;;;4904749;28;89925;-44
2023/05/30 11:29:53;;;;;;;77.35;53.60;;;19.00;53.20;;;;;;4902808;28;89821;-44
2023/05/30 11:32:22;;;;;;;79.75;54.17;;;19.00;53.30;;;;;;4903459;28;91070;-47
2023/05/30 11:34:58;;;;;;;76.80;53.85;;;19.00;53.70;;;;;;4907703;28;90549;-44
2023/05/30 11:37:25;;;;;;;77.10;54.65;;;19.10;54.80;;;;;;4903637;28;90537;-44
2023/05/30 11:39:57;;;;;;;76.78;53.92;;;19.10;52.20;;;;;;4906815;28;89542;-45
2023/05/30 11:42:23;;;;;;;78.10;54.45;;;19.10;54.60;;;;;;4902264;28;89467;-45
2023/05/30 11:44:49;;;;;;;81.78;55.53;;;19.10;54.80;;;;;;4904031;28;91604;-44
2023/05/30 11:47:15;;;;;;;79.20;54.25;;;19.10;54.80;;;;;;4906241;28;89881;-44
2023/05/30 11:49:41;;;;;;;80.50;55.90;;;19.20;55.40;;;;;;4907425;28;89224;-43
2023/05/30 11:52:08;;;;;;;83.15;55.30;;;19.20;55.30;;;;;;4905006;28;90265;-43
2023/05/30 11:54:34;;;;;;;79.72;54.65;;;19.20;54.70;;;;;;4900005;28;91098;-45
2023/05/30 11:57:01;;;;;;;76.43;54.13;;;19.20;54.60;;;;;;4905097;28;90513;-44
2023/05/30 11:59:27;;;;;;;80.20;54.45;;;19.30;55.20;;;;;;4902700;28;91133;-44
2023/05/30 12:01:54;;;;;;;74.63;54.03;;;19.40;55.30;;;;;;4903903;28;89922;-44
2023/05/30 12:04:21;;;;;;;78.22;54.08;;;19.40;55.40;;;;;;4902768;28;89476;-43
2023/05/30 12:06:47;;;;;;;78.60;54.53;;;19.40;55.20;;;;;;4903193;28;89370;-46
2023/05/30 12:09:12;;;;;;;80.15;55.78;;;19.50;55.10;;;;;;4901253;28;90786;-44
2023/05/30 12:11:53;;;;;;;76.45;54.92;;;19.50;53.90;;;;;;4901532;28;89471;-45
2023/05/30 12:14:18;;;;;;;78.35;55.17;;;19.60;54.10;;;;;;4899826;28;89023;-44
2023/05/30 12:16:44;;;;;;;77.63;54.53;;;19.60;54.50;;;;;;4900230;28;89419;-49
2023/05/30 12:19:10;;;;;;;77.55;54.50;;;19.60;54.20;;;;;;4902213;28;89823;-43
2023/05/30 12:21:36;;;;;;;81.75;54.80;;;19.60;54.90;;;;;;4899640;28;90689;-44
2023/05/30 12:24:13;;;;;;;76.25;54.22;;;19.70;54.60;;;;;;4900340;28;89978;-46
2023/05/30 12:26:47;;;;;;;77.43;55.72;;;19.70;55.20;;;;;;4902643;28;90243;-48
2023/05/30 12:29:12;;;;;;;75.63;54.75;;;19.70;55.10;;;;;;4899892;28;89212;-49
2023/05/30 12:31:38;;;;;;;75.55;55.17;;;19.70;54.90;;;;;;4898746;28;90093;-45